Marysville, MT (59640)

2:56 PM MST on November 22, 2014 (GMT -0700)
Flesher Pass | Change Station
CLOSE
Current Station
Personal Weather Station
Location: Montana, MT
Elevation: 5364 ft
Nearby Weather Stations

Elev 5364 ft 46.96 °N, 112.35 °W | Updated 12 minutes ago

Mostly Cloudy
Mostly Cloudy
32.5 °F
Feels Like 24 °F
N
11.4
Wind Variable Wind from NW

Today
High -- | Low -- °F
--% Chance of Precip.
Yesterday
High -- | Low -- °F
Precip. -- in
7:41 AM 4:48 PM
New Moon, 0% visible
Pressure 29.49 in
Visibility 10.0 miles
Clouds Clear
Windchill 24 °F
Dew Point 20 °F
Humidity 59%
Rainfall 0.07 in
Snow Depth Not available.
UV 1 out of 12
Pollen .10 out of 12
Air Quality Not available.
Flu Activity Not available.
METAR KHLN 222053Z 28024G43KT 10SM CLR 07/M09 A2945 RMK AO2 PK WND 27050/2039 SLP987 T00721089 53015

More Conditions Fewer Conditions

Pressure 29.49 in
Visibility 10.0 miles
Clouds Clear
Windchill 24 °F
Dew Point 20 °F
Humidity 59%
Rainfall 0.07 in
Snow Depth Not available.
UV 1 out of 12
Pollen .10 out of 12
Air Quality Not available.
Flu Activity Not available.
METAR KHLN 222053Z 28024G43KT 10SM CLR 07/M09 A2945 RMK AO2 PK WND 27050/2039 SLP987 T00721089 53015

More Conditions Fewer Conditions

10-Day Weather Forecast

Almanac

Astronomy

Nov. 22, 2014 Rise Set
Actual Time
Civil Twilight
Nautical Twilight
Astronomical Twilight
Moon
Length of Visible Light
Length of Day
Tomorrow will be .
, % of the Moon is Illuminated

Today's Extremes

State Highs State Lows

Community

WunderPhotos

Upload Photos

1,772,914 photos uploaded!

WunderBlogs® & News

Nearby

Air Quality

  Air Quality AQ Index Pollutant
Not available.

Snow Depth

Station Depth Elevation

Earthquake Activity

City Distance Mag. Time & Date
Minimum magnitude displayed is 2.5.

Coastal Water Temperatures

Place Temperature

Nearby Weather Stations